createdAt,value
2022-08-05T00:01:48.845Z,22.65
2022-08-05T00:04:19.568Z,22.59
2022-08-05T00:06:51.829Z,22.55
2022-08-05T00:09:21.147Z,22.52
2022-08-05T00:11:55.352Z,22.48
2022-08-05T00:14:27.594Z,22.44
2022-08-05T00:16:58.839Z,22.42
2022-08-05T00:19:33.605Z,22.39
2022-08-05T00:22:14.107Z,22.36
2022-08-05T00:24:45.888Z,22.33
2022-08-05T00:27:35.731Z,22.29
2022-08-05T00:30:05.801Z,22.26
2022-08-05T00:32:40.579Z,22.22
2022-08-05T00:35:08.968Z,22.19
2022-08-05T00:37:53.547Z,22.16
2022-08-05T00:40:28.275Z,22.12
2022-08-05T00:43:02.742Z,22.08
2022-08-05T00:45:38.716Z,22.05
2022-08-05T00:48:14.417Z,22.02
2022-08-05T00:50:46.134Z,21.98
2022-08-05T00:54:00.841Z,21.95
2022-08-05T00:56:09.548Z,21.92
2022-08-05T00:58:40.459Z,21.88
2022-08-05T01:01:15.795Z,21.85
2022-08-05T01:03:56.107Z,21.82
2022-08-05T01:06:32.406Z,21.78
2022-08-05T01:09:00.664Z,21.76
2022-08-05T01:11:37.409Z,21.74
2022-08-05T01:14:15.605Z,21.70
2022-08-05T01:17:06.209Z,21.69
2022-08-05T01:20:01.428Z,21.66
2022-08-05T01:22:39.463Z,21.63
2022-08-05T01:25:43.153Z,21.61
2022-08-05T01:28:35.908Z,21.57
2022-08-05T01:31:19.371Z,21.54
2022-08-05T01:33:55.808Z,21.51
2022-08-05T01:36:30.028Z,21.47
2022-08-05T01:39:00.974Z,21.44
2022-08-05T01:41:35.504Z,21.40
2022-08-05T01:44:11.180Z,21.37
2022-08-05T01:46:46.289Z,21.34
2022-08-05T01:49:24.874Z,21.31
2022-08-05T01:52:00.140Z,21.27
2022-08-05T01:54:45.824Z,21.22
2022-08-05T01:58:29.147Z,21.18
2022-08-05T02:00:13.001Z,21.15
2022-08-05T02:02:53.693Z,21.11
2022-08-05T02:05:31.307Z,21.08
2022-08-05T02:08:03.931Z,21.06
2022-08-05T02:10:40.158Z,21.03
2022-08-05T02:13:20.548Z,21.01
2022-08-05T02:15:57.226Z,20.98
2022-08-05T02:18:34.892Z,20.96
2022-08-05T02:21:15.169Z,20.93
2022-08-05T02:23:50.516Z,20.89
2022-08-05T02:26:27.691Z,20.85
2022-08-05T02:28:58.523Z,20.81
2022-08-05T02:31:34.789Z,20.78
2022-08-05T02:34:06.875Z,20.77
2022-08-05T02:36:44.092Z,20.74
2022-08-05T02:39:15.265Z,20.71
2022-08-05T02:42:00.337Z,20.69
2022-08-05T02:44:31.114Z,20.65
2022-08-05T02:47:01.113Z,20.63
2022-08-05T02:49:40.525Z,20.61
2022-08-05T02:52:29.326Z,20.58
2022-08-05T02:55:01.958Z,20.55
2022-08-05T02:58:20.224Z,20.52
2022-08-05T03:00:26.855Z,20.48
2022-08-05T03:02:58.413Z,20.45
2022-08-05T03:06:56.886Z,20.42
2022-08-05T03:08:16.554Z,20.38
2022-08-05T03:11:41.277Z,20.36
2022-08-05T03:13:51.839Z,20.33
2022-08-05T03:16:24.253Z,20.30
2022-08-05T03:18:53.400Z,20.28
2022-08-05T03:21:22.751Z,20.26
2022-08-05T03:23:58.266Z,20.24
2022-08-05T03:26:31.828Z,20.22
2022-08-05T03:29:01.424Z,20.20
2022-08-05T03:31:55.971Z,20.19
2022-08-05T03:34:19.392Z,20.16
2022-08-05T03:36:52.336Z,20.14
2022-08-05T03:39:26.744Z,20.14
2022-08-05T03:41:56.374Z,20.13
2022-08-05T03:44:25.890Z,20.12
2022-08-05T03:46:57.460Z,20.12
2022-08-05T03:49:31.129Z,20.12
2022-08-05T03:52:38.457Z,20.32
2022-08-05T03:56:05.390Z,20.47
2022-08-05T03:58:08.202Z,20.46
2022-08-05T04:00:41.930Z,20.44
2022-08-05T04:03:15.036Z,20.43
2022-08-05T04:05:59.195Z,20.42
2022-08-05T04:08:39.277Z,20.38
2022-08-05T04:11:09.896Z,20.38
2022-08-05T04:13:50.190Z,20.38
2022-08-05T04:16:25.548Z,20.37
2022-08-05T04:19:00.573Z,20.36
2022-08-05T04:22:09.086Z,20.37
2022-08-05T04:24:22.542Z,20.36
2022-08-05T04:26:51.401Z,20.37
2022-08-05T04:29:19.783Z,20.39
2022-08-05T04:31:48.497Z,20.41
2022-08-05T04:34:33.844Z,20.42
2022-08-05T04:37:03.910Z,20.44
2022-08-05T04:39:35.388Z,20.46
2022-08-05T04:42:03.961Z,20.48
2022-08-05T04:44:34.395Z,20.50
2022-08-05T04:47:08.961Z,20.53
2022-08-05T04:50:02.113Z,20.56
2022-08-05T04:52:33.278Z,20.60
2022-08-05T04:55:14.321Z,20.64
2022-08-05T04:57:48.034Z,20.68
2022-08-05T05:00:23.371Z,20.73
2022-08-05T05:02:53.161Z,20.76
2022-08-05T05:05:28.216Z,20.81
2022-08-05T05:08:02.177Z,20.87
2022-08-05T05:10:34.298Z,20.92
2022-08-05T05:13:04.099Z,20.96
2022-08-05T05:15:57.365Z,21.00
2022-08-05T05:18:28.258Z,21.04
2022-08-05T05:20:59.337Z,21.08
2022-08-05T05:23:39.348Z,21.12
2022-08-05T05:26:17.114Z,21.19
2022-08-05T05:28:46.297Z,21.24
2022-08-05T05:31:14.342Z,21.29
2022-08-05T05:34:01.709Z,21.33
2022-08-05T05:36:32.107Z,21.38
2022-08-05T05:39:00.434Z,21.43
2022-08-05T05:41:40.164Z,21.49
2022-08-05T05:44:15.746Z,21.56
2022-08-05T05:47:04.076Z,21.63
2022-08-05T05:49:33.495Z,21.69
2022-08-05T05:52:06.017Z,21.75
2022-08-05T05:54:50.473Z,21.81
2022-08-05T05:57:20.451Z,21.90
2022-08-05T05:59:49.332Z,21.96
2022-08-05T06:02:36.923Z,22.03
2022-08-05T06:05:16.958Z,22.11
2022-08-05T06:08:01.112Z,22.18
2022-08-05T06:10:36.197Z,22.28
2022-08-05T06:13:05.378Z,22.37
2022-08-05T06:16:29.806Z,22.45
2022-08-05T06:18:31.326Z,22.56
2022-08-05T06:21:01.428Z,22.66
2022-08-05T06:23:32.066Z,22.77
2022-08-05T06:26:21.263Z,22.92
2022-08-05T06:28:54.559Z,23.04
2022-08-05T06:31:22.670Z,23.15
2022-08-05T06:34:07.716Z,23.24
2022-08-05T06:36:53.572Z,23.36
2022-08-05T06:39:28.565Z,23.45
2022-08-05T06:42:04.077Z,23.52
2022-08-05T06:44:34.782Z,23.56
2022-08-05T06:47:03.137Z,23.60
2022-08-05T06:50:00.849Z,23.65
2022-08-05T06:52:37.723Z,23.71
2022-08-05T06:55:08.067Z,23.73
2022-08-05T06:58:03.751Z,23.85
2022-08-05T07:00:25.425Z,23.94
2022-08-05T07:02:54.420Z,24.02
2022-08-05T07:05:31.817Z,24.09
2022-08-05T07:08:10.823Z,24.19
2022-08-05T07:10:53.467Z,24.29
2022-08-05T07:13:59.484Z,24.40
2022-08-05T07:17:56.196Z,24.56
2022-08-05T07:22:28.682Z,24.82
2022-08-05T07:25:23.584Z,24.93
2022-08-05T07:27:58.240Z,25.03
2022-08-05T07:30:33.774Z,25.14
2022-08-05T07:33:05.543Z,25.23
2022-08-05T07:36:01.486Z,25.25
2022-08-05T07:38:34.292Z,25.41
2022-08-05T07:42:07.277Z,25.51
2022-08-05T07:43:56.667Z,25.63
2022-08-05T07:46:28.925Z,25.74
2022-08-05T07:49:03.564Z,25.85
2022-08-05T07:51:40.208Z,25.96
2022-08-05T07:54:10.054Z,26.06
2022-08-05T07:57:14.690Z,26.17
2022-08-05T07:59:38.244Z,26.27
2022-08-05T08:02:16.554Z,26.38
2022-08-05T08:04:48.237Z,26.49
2022-08-05T08:07:22.025Z,26.58
2022-08-05T08:09:52.918Z,26.67
2022-08-05T08:12:35.611Z,26.78
2022-08-05T08:15:15.680Z,26.88
2022-08-05T08:17:50.585Z,26.98
2022-08-05T08:21:00.287Z,27.09
2022-08-05T08:24:01.380Z,27.22
2022-08-05T08:26:02.623Z,27.35
2022-08-05T08:28:36.566Z,27.45
2022-08-05T08:31:21.148Z,27.58
2022-08-05T08:33:51.694Z,27.68
2022-08-05T08:36:38.428Z,27.79
2022-08-05T08:39:15.613Z,27.91
2022-08-05T08:41:52.657Z,28.02
2022-08-05T08:45:17.714Z,28.16
2022-08-05T08:48:06.434Z,28.32
2022-08-05T08:50:31.580Z,28.46
2022-08-05T08:53:08.104Z,28.59
2022-08-05T08:56:04.843Z,28.71
2022-08-05T08:58:43.370Z,28.86
2022-08-05T09:01:18.360Z,28.99
2022-08-05T09:03:54.567Z,29.13
2022-08-05T09:06:30.705Z,29.26
2022-08-05T09:09:01.597Z,29.36
2022-08-05T09:11:52.906Z,29.46
2022-08-05T09:14:58.633Z,29.57
2022-08-05T09:17:40.441Z,29.67
2022-08-05T09:20:09.476Z,29.77
2022-08-05T09:23:09.330Z,29.87
2022-08-05T09:26:01.797Z,29.97
2022-08-05T09:28:32.065Z,30.06
2022-08-05T09:32:39.967Z,30.15
2022-08-05T09:34:26.111Z,30.26
2022-08-05T09:36:59.376Z,30.36
2022-08-05T09:39:44.791Z,30.46
2022-08-05T09:42:23.532Z,30.57
2022-08-05T09:44:57.419Z,30.70
2022-08-05T09:47:36.484Z,30.84
2022-08-05T09:50:37.966Z,30.98
2022-08-05T09:53:06.715Z,31.10
2022-08-05T09:55:57.336Z,31.22
2022-08-05T09:58:26.679Z,31.32
2022-08-05T10:01:01.857Z,31.42
2022-08-05T10:03:59.659Z,31.55
2022-08-05T10:06:31.364Z,31.68
2022-08-05T10:09:24.994Z,31.80
2022-08-05T10:12:30.138Z,31.88
2022-08-05T10:15:17.137Z,31.98
2022-08-05T10:18:04.029Z,32.07
2022-08-05T10:20:44.146Z,32.18
2022-08-05T10:23:50.928Z,32.30
2022-08-05T10:26:15.048Z,32.43
2022-08-05T10:28:46.409Z,32.53
2022-08-05T10:32:52.875Z,32.63
2022-08-05T10:34:06.945Z,32.75
2022-08-05T10:36:37.686Z,32.84
2022-08-05T10:39:24.890Z,32.92
2022-08-05T10:42:11.903Z,33.03
2022-08-05T10:44:44.730Z,33.08
2022-08-05T10:47:26.805Z,33.10
2022-08-05T10:50:32.065Z,33.23
2022-08-05T10:53:04.371Z,33.36
2022-08-05T10:56:03.350Z,33.51
2022-08-05T10:58:22.736Z,33.66
2022-08-05T11:01:06.547Z,33.79
2022-08-05T11:04:12.560Z,33.96
2022-08-05T11:07:01.576Z,34.17
2022-08-05T11:10:04.110Z,34.51
2022-08-05T11:12:54.887Z,34.78
2022-08-05T11:16:00.044Z,34.95
2022-08-05T11:18:35.324Z,35.07
2022-08-05T11:21:11.678Z,35.14
2022-08-05T11:24:04.589Z,35.22
2022-08-05T11:26:43.292Z,35.37
2022-08-05T11:29:59.354Z,35.48
2022-08-05T11:32:31.933Z,35.61
2022-08-05T11:35:00.932Z,35.71
2022-08-05T11:38:26.173Z,35.80
2022-08-05T11:41:58.153Z,35.88
2022-08-05T11:44:12.770Z,36.00
2022-08-05T11:47:11.810Z,36.11
2022-08-05T11:49:43.358Z,36.22
2022-08-05T11:52:29.889Z,36.25
2022-08-05T11:55:07.344Z,36.33
2022-08-05T11:58:08.046Z,36.45
2022-08-05T12:00:31.177Z,36.64
2022-08-05T12:03:16.308Z,36.76
2022-08-05T12:06:01.764Z,36.91
2022-08-05T12:08:32.777Z,37.12
2022-08-05T12:11:05.848Z,37.25
2022-08-05T12:13:48.802Z,37.28
2022-08-05T12:16:28.475Z,37.40
2022-08-05T12:18:56.749Z,37.53
2022-08-05T12:21:30.144Z,37.56
2022-08-05T12:24:26.235Z,37.61
2022-08-05T12:26:55.124Z,37.76
2022-08-05T12:29:25.042Z,38.03
2022-08-05T12:32:02.012Z,38.35
2022-08-05T12:34:35.780Z,38.63
2022-08-05T12:37:17.614Z,38.90
2022-08-05T12:39:53.842Z,39.19
2022-08-05T12:42:25.399Z,39.43
2022-08-05T12:45:08.809Z,39.62
2022-08-05T12:47:43.460Z,39.78
2022-08-05T12:50:30.980Z,40.03
2022-08-05T12:53:02.924Z,40.22
2022-08-05T12:55:35.420Z,40.45
2022-08-05T12:58:49.608Z,40.70
2022-08-05T13:02:02.930Z,40.96
2022-08-05T13:03:42.506Z,41.28
2022-08-05T13:06:18.128Z,41.47
2022-08-05T13:08:51.965Z,41.65
2022-08-05T13:12:02.352Z,41.90
2022-08-05T13:14:20.110Z,41.99
2022-08-05T13:16:56.566Z,42.06
2022-08-05T13:19:52.489Z,42.12
2022-08-05T13:22:28.263Z,42.22
2022-08-05T13:25:19.559Z,42.33
2022-08-05T13:27:52.783Z,42.39
2022-08-05T13:30:35.041Z,42.28
2022-08-05T13:33:04.840Z,42.13
2022-08-05T13:35:43.049Z,42.20
2022-08-05T13:38:20.348Z,42.31
2022-08-05T13:41:02.872Z,42.44
2022-08-05T13:43:45.098Z,42.52
2022-08-05T13:46:30.783Z,42.75
2022-08-05T13:49:10.427Z,42.93
2022-08-05T13:51:46.111Z,43.17
2022-08-05T13:54:24.900Z,43.28
2022-08-05T13:56:53.658Z,43.35
2022-08-05T13:59:24.337Z,43.56
2022-08-05T14:01:56.532Z,43.66
2022-08-05T14:04:51.369Z,43.63
2022-08-05T14:07:26.322Z,43.69
2022-08-05T14:10:30.845Z,43.83
2022-08-05T14:12:59.995Z,44.36
2022-08-05T14:16:09.087Z,44.56
2022-08-05T14:18:23.499Z,44.43
2022-08-05T14:20:54.814Z,44.37
2022-08-05T14:23:25.841Z,44.34
2022-08-05T14:25:58.763Z,44.44
2022-08-05T14:28:29.889Z,44.44
2022-08-05T14:31:01.490Z,44.45
2022-08-05T14:33:32.509Z,44.25
2022-08-05T14:36:21.444Z,44.09
2022-08-05T14:38:51.017Z,44.37
2022-08-05T14:41:19.036Z,44.77
2022-08-05T14:43:57.799Z,45.20
2022-08-05T14:46:31.036Z,45.48
2022-08-05T14:49:06.483Z,45.78
2022-08-05T14:51:37.606Z,46.16
2022-08-05T14:54:27.918Z,46.49
2022-08-05T14:56:58.813Z,46.65
2022-08-05T14:59:29.614Z,46.51
2022-08-05T15:02:15.039Z,46.39
2022-08-05T15:04:47.885Z,46.37
2022-08-05T15:08:11.518Z,46.56
2022-08-05T15:10:09.589Z,46.82
2022-08-05T15:12:58.001Z,47.01
2022-08-05T15:15:55.762Z,47.12
2022-08-05T15:18:17.229Z,47.17
2022-08-05T15:20:46.345Z,47.28
2022-08-05T15:23:14.428Z,47.45
2022-08-05T15:25:52.060Z,47.55
2022-08-05T15:28:27.229Z,47.65
2022-08-05T15:30:57.005Z,47.80
2022-08-05T15:34:18.849Z,47.97
2022-08-05T15:36:17.707Z,48.28
2022-08-05T15:41:00.017Z,48.64
2022-08-05T15:41:57.569Z,48.92
2022-08-05T15:44:30.063Z,49.07
2022-08-05T15:47:01.658Z,49.26
2022-08-05T15:49:48.151Z,49.26
2022-08-05T15:52:51.618Z,48.93
2022-08-05T15:55:16.078Z,48.96
2022-08-05T15:57:45.103Z,49.09
2022-08-05T16:00:16.799Z,49.36
2022-08-05T16:02:44.898Z,49.64
2022-08-05T16:05:12.750Z,49.80
2022-08-05T16:07:46.614Z,49.94
2022-08-05T16:10:19.156Z,50.09
2022-08-05T16:12:55.880Z,50.02
2022-08-05T16:15:24.431Z,50.05
2022-08-05T16:18:00.960Z,49.99
2022-08-05T16:20:32.472Z,49.83
2022-08-05T16:23:01.036Z,49.57
2022-08-05T16:25:34.200Z,49.41
2022-08-05T16:28:10.240Z,49.31
2022-08-05T16:30:38.873Z,49.32
2022-08-05T16:33:09.308Z,49.45
2022-08-05T16:35:43.012Z,49.55
2022-08-05T16:38:18.331Z,49.46
2022-08-05T16:41:00.129Z,49.31
2022-08-05T16:43:32.160Z,49.09
2022-08-05T16:46:07.275Z,48.95
2022-08-05T16:48:45.328Z,48.91
2022-08-05T16:51:13.185Z,48.65
2022-08-05T16:54:04.019Z,48.37
2022-08-05T16:56:33.880Z,48.25
2022-08-05T16:59:08.055Z,47.99
2022-08-05T17:01:53.038Z,47.69
2022-08-05T17:04:27.841Z,47.36
2022-08-05T17:07:01.242Z,46.87
2022-08-05T17:09:30.352Z,46.31
2022-08-05T17:12:08.339Z,45.66
2022-08-05T17:14:39.604Z,44.99
2022-08-05T17:17:14.848Z,44.32
2022-08-05T17:19:45.717Z,43.77
2022-08-05T17:22:24.508Z,43.23
2022-08-05T17:24:58.647Z,42.73
2022-08-05T17:27:33.922Z,42.24
2022-08-05T17:30:12.185Z,41.71
2022-08-05T17:32:47.163Z,41.24
2022-08-05T17:35:20.880Z,40.80
2022-08-05T17:37:49.457Z,40.37
2022-08-05T17:40:22.473Z,40.00
2022-08-05T17:42:53.272Z,39.64
2022-08-05T17:45:29.551Z,39.25
2022-08-05T17:48:08.022Z,38.79
2022-08-05T17:50:36.204Z,38.39
2022-08-05T17:53:05.309Z,38.04
2022-08-05T17:55:37.825Z,37.72
2022-08-05T17:58:09.396Z,37.40
2022-08-05T18:00:39.885Z,37.11
2022-08-05T18:03:27.988Z,36.79
2022-08-05T18:06:06.145Z,36.50
2022-08-05T18:08:44.638Z,36.23
2022-08-05T18:11:24.579Z,35.98
2022-08-05T18:14:03.475Z,35.71
2022-08-05T18:16:33.395Z,35.51
2022-08-05T18:19:01.890Z,35.35
2022-08-05T18:22:07.356Z,35.16
2022-08-05T18:24:18.484Z,34.68
2022-08-05T18:26:48.807Z,34.20
2022-08-05T18:29:17.531Z,33.82
2022-08-05T18:32:06.089Z,33.34
2022-08-05T18:34:41.318Z,32.91
2022-08-05T18:37:12.059Z,32.53
2022-08-05T18:40:31.646Z,32.24
2022-08-05T18:42:29.507Z,31.95
2022-08-05T18:44:57.162Z,31.71
2022-08-05T18:47:26.773Z,31.50
2022-08-05T18:50:15.541Z,31.28
2022-08-05T18:52:51.485Z,31.05
2022-08-05T18:55:21.637Z,30.88
2022-08-05T18:57:53.334Z,30.71
2022-08-05T19:00:27.042Z,30.58
2022-08-05T19:03:04.125Z,30.45
2022-08-05T19:06:12.348Z,30.28
2022-08-05T19:08:30.233Z,30.14
2022-08-05T19:11:02.760Z,29.99
2022-08-05T19:13:36.179Z,29.85
2022-08-05T19:16:24.877Z,29.74
2022-08-05T19:18:57.038Z,29.63
2022-08-05T19:21:27.694Z,29.53
2022-08-05T19:24:06.677Z,29.42
2022-08-05T19:26:54.147Z,29.32
2022-08-05T19:29:35.468Z,29.21
2022-08-05T19:32:11.562Z,29.12
2022-08-05T19:34:40.065Z,29.02
2022-08-05T19:37:10.089Z,28.91
2022-08-05T19:39:45.116Z,28.81
2022-08-05T19:42:35.973Z,28.68
2022-08-05T19:45:06.434Z,28.52
2022-08-05T19:47:37.201Z,28.39
2022-08-05T19:50:07.839Z,28.25
2022-08-05T19:52:39.025Z,28.09
2022-08-05T19:56:11.359Z,27.99
2022-08-05T19:58:07.128Z,27.86
2022-08-05T20:00:42.824Z,27.74
2022-08-05T20:03:11.285Z,27.65
2022-08-05T20:05:49.893Z,27.57
2022-08-05T20:08:19.525Z,27.48
2022-08-05T20:10:49.619Z,27.41
2022-08-05T20:13:18.185Z,27.35
2022-08-05T20:16:01.403Z,27.28
2022-08-05T20:18:35.791Z,27.22
2022-08-05T20:21:06.806Z,27.14
2022-08-05T20:23:39.620Z,27.09
2022-08-05T20:26:21.169Z,27.04
2022-08-05T20:28:54.083Z,26.98
2022-08-05T20:31:36.943Z,26.93
2022-08-05T20:34:12.552Z,26.89
2022-08-05T20:36:43.836Z,26.84
2022-08-05T20:39:13.548Z,26.77
2022-08-05T20:41:47.811Z,26.69
2022-08-05T20:44:29.674Z,26.63
2022-08-05T20:47:04.712Z,26.55
2022-08-05T20:49:39.628Z,26.47
2022-08-05T20:52:10.798Z,26.40
2022-08-05T20:54:59.591Z,26.35
2022-08-05T20:57:43.631Z,26.29
2022-08-05T21:00:40.284Z,26.25
2022-08-05T21:03:06.792Z,26.18
2022-08-05T21:05:47.867Z,26.12
2022-08-05T21:08:33.100Z,26.06
2022-08-05T21:11:11.793Z,26.01
2022-08-05T21:13:56.274Z,25.97
2022-08-05T21:16:29.738Z,25.94
2022-08-05T21:19:00.845Z,25.89
2022-08-05T21:21:39.119Z,25.84
2022-08-05T21:24:12.889Z,25.80
2022-08-05T21:26:41.561Z,25.75
2022-08-05T21:29:12.540Z,25.70
2022-08-05T21:31:44.481Z,25.64
2022-08-05T21:34:16.032Z,25.57
2022-08-05T21:36:46.560Z,25.51
2022-08-05T21:39:26.630Z,25.46
2022-08-05T21:42:01.075Z,25.40
2022-08-05T21:44:31.029Z,25.36
2022-08-05T21:47:00.365Z,25.35
2022-08-05T21:49:58.707Z,25.33
2022-08-05T21:52:27.749Z,25.32
2022-08-05T21:55:06.044Z,25.31
2022-08-05T21:57:42.505Z,25.30
2022-08-05T22:00:12.308Z,25.26
2022-08-05T22:02:46.783Z,25.16
2022-08-05T22:05:16.817Z,25.03
2022-08-05T22:07:59.190Z,24.74
2022-08-05T22:10:29.415Z,24.43
2022-08-05T22:14:05.203Z,24.19
2022-08-05T22:15:56.614Z,23.90
2022-08-05T22:18:32.732Z,23.70
2022-08-05T22:21:04.250Z,23.58
2022-08-05T22:24:02.383Z,23.48
2022-08-05T22:26:50.741Z,23.40
2022-08-05T22:29:26.541Z,23.35
2022-08-05T22:31:59.445Z,23.31
2022-08-05T22:34:28.812Z,23.29
2022-08-05T22:36:58.520Z,23.29
2022-08-05T22:39:33.362Z,23.28
2022-08-05T22:42:12.138Z,23.27
2022-08-05T22:44:48.385Z,23.26
2022-08-05T22:47:30.432Z,23.25
2022-08-05T22:50:19.514Z,23.24
2022-08-05T22:52:52.755Z,23.24
2022-08-05T22:55:22.134Z,23.23
2022-08-05T22:57:55.000Z,23.22
2022-08-05T23:00:24.496Z,23.22
2022-08-05T23:02:54.986Z,23.21
2022-08-05T23:05:23.296Z,23.20
2022-08-05T23:07:52.622Z,23.16
2022-08-05T23:10:23.408Z,23.14
2022-08-05T23:12:54.942Z,23.11
2022-08-05T23:15:29.351Z,23.07
2022-08-05T23:18:11.314Z,23.03
2022-08-05T23:20:39.984Z,22.99
2022-08-05T23:23:11.386Z,22.97
2022-08-05T23:25:54.968Z,22.95
2022-08-05T23:28:29.148Z,22.94
2022-08-05T23:31:16.280Z,22.92
2022-08-05T23:34:04.732Z,22.87
2022-08-05T23:36:40.125Z,22.81
2022-08-05T23:39:16.589Z,22.76
2022-08-05T23:41:56.276Z,22.73
2022-08-05T23:44:27.908Z,22.70
2022-08-05T23:47:02.505Z,22.68
2022-08-05T23:49:47.342Z,22.66
2022-08-05T23:52:29.372Z,22.66
2022-08-05T23:55:08.858Z,22.64
2022-08-05T23:57:37.270Z,22.63
